Time;durP1;ratioP1;P1;durP2;ratioP2;P2;SDS_P1;SDS_P2;PMS_P1;PMS_P2;Temp;Humidity;BMP_temperature;BMP_pressure;BME280_temperature;BME280_humidity;BME280_pressure;Samples;Min_cycle;Max_cycle;Signal;HPM_P1;HPM_P2
2022/08/21 00:02:53;;;;;;;10.57;6.87;;;;;;;21.26;65.02;97963.22;8285421;28;20284;-73
2022/08/21 00:06:55;;;;;;;10.53;6.60;;;;;;;21.18;65.20;97957.81;8285360;28;20469;-72
2022/08/21 00:11:00;;;;;;;7.83;6.63;;;;;;;21.18;64.96;97961.28;8285178;28;20242;-72
2022/08/21 00:15:04;;;;;;;9.00;6.63;;;;;;;21.06;65.47;97955.28;8285117;28;20234;-72
2022/08/21 00:19:10;;;;;;;10.97;6.70;;;;;;;21.06;65.67;97952.66;8284706;28;20247;-72
2022/08/21 00:23:13;;;;;;;9.63;6.20;;;;;;;21.08;65.29;97942.00;8284634;28;20236;-72
2022/08/21 00:27:18;;;;;;;9.23;5.83;;;;;;;21.07;65.44;97946.41;8284487;28;20237;-72
2022/08/21 00:31:21;;;;;;;7.93;6.20;;;;;;;20.96;65.60;97941.28;8284284;28;20238;-72
2022/08/21 00:35:31;;;;;;;8.80;7.03;;;;;;;21.01;66.15;97943.50;8284406;28;20240;-72
2022/08/21 00:39:33;;;;;;;9.53;7.60;;;;;;;21.02;67.26;97942.53;8284098;28;20238;-72
2022/08/21 00:43:40;;;;;;;9.47;7.33;;;;;;;21.00;66.79;97933.91;8284209;28;20544;-72
2022/08/21 00:47:43;;;;;;;9.50;7.60;;;;;;;20.84;67.46;97932.63;8284002;28;20274;-72
2022/08/21 00:51:49;;;;;;;11.53;7.07;;;;;;;21.00;66.52;97931.28;8283943;28;20237;-72
2022/08/21 00:55:52;;;;;;;9.37;7.77;;;;;;;20.94;67.22;97930.03;8283438;28;20236;-72
2022/08/21 01:00:01;;;;;;;10.60;7.00;;;;;;;21.03;66.74;97942.38;8283271;28;20248;-72
2022/08/21 01:04:04;;;;;;;8.90;7.20;;;;;;;21.07;67.36;97938.50;8283562;28;20237;-72
2022/08/21 01:08:07;;;;;;;10.20;7.60;;;;;;;21.02;67.83;97950.44;8283310;28;20400;-72
2022/08/21 01:12:11;;;;;;;9.77;8.77;;;;;;;20.96;67.81;97945.69;8283493;28;20240;-72
2022/08/21 01:16:18;;;;;;;11.03;9.70;;;;;;;21.06;67.72;97941.31;8283029;28;20233;-72
2022/08/21 01:20:21;;;;;;;13.13;10.10;;;;;;;21.02;68.06;97950.44;8282842;28;20229;-72
2022/08/21 01:24:35;;;;;;;10.40;9.40;;;;;;;20.97;68.52;97942.94;8282554;28;20517;-72
2022/08/21 01:28:40;;;;;;;10.27;9.27;;;;;;;21.06;68.22;97946.56;8282755;28;20237;-72
2022/08/21 01:32:43;;;;;;;11.70;10.50;;;;;;;21.00;68.61;97941.81;8282667;28;20236;-72
2022/08/21 01:36:47;;;;;;;13.70;10.33;;;;;;;21.05;68.58;97945.72;8282295;28;20434;-72
2022/08/21 01:40:51;;;;;;;15.17;11.83;;;;;;;21.04;68.61;97945.88;8281919;28;20240;-72
2022/08/21 01:44:59;;;;;;;11.27;9.93;;;;;;;21.02;68.62;97940.72;8281663;28;20232;-72
2022/08/21 01:49:02;;;;;;;11.77;9.90;;;;;;;20.78;69.33;97930.53;8282130;28;20536;-72
2022/08/21 01:53:05;;;;;;;13.73;10.03;;;;;;;20.84;69.42;97935.25;8281883;28;20237;-72
2022/08/21 01:57:10;;;;;;;9.83;8.57;;;;;;;20.93;68.59;97943.34;8282031;28;20253;-72
2022/08/21 02:01:13;;;;;;;11.17;8.97;;;;;;;20.91;68.84;97937.38;8281751;28;20240;-72
2022/08/21 02:05:17;;;;;;;10.47;9.33;;;;;;;20.99;68.28;97943.63;8281861;28;20234;-72
2022/08/21 02:09:21;;;;;;;12.47;9.23;;;;;;;21.09;68.30;97941.88;8281810;28;20428;-72
2022/08/21 02:13:26;;;;;;;11.50;9.40;;;;;;;21.03;68.06;97934.47;8281819;28;20236;-72
2022/08/21 02:17:29;;;;;;;11.57;10.07;;;;;;;21.06;68.30;97930.78;8281568;28;20256;-72
2022/08/21 02:21:32;;;;;;;13.70;11.20;;;;;;;21.00;68.50;97933.91;8280812;28;20245;-72
2022/08/21 02:25:35;;;;;;;14.23;10.87;;;;;;;21.00;68.69;97939.19;8281163;28;20245;-72
2022/08/21 02:29:40;;;;;;;11.40;10.20;;;;;;;21.00;68.50;97936.56;8281487;28;20236;-72
2022/08/21 02:33:43;;;;;;;12.00;10.80;;;;;;;20.92;68.45;97933.75;8281673;28;20543;-72
2022/08/21 02:37:48;;;;;;;13.60;11.80;;;;;;;20.91;68.71;97935.56;8281290;28;20232;-72
2022/08/21 02:41:51;;;;;;;13.17;11.77;;;;;;;20.88;68.87;97930.56;8280921;28;20424;-72
2022/08/21 02:45:56;;;;;;;16.37;11.73;;;;;;;20.91;68.80;97934.75;8281483;28;20255;-72
2022/08/21 02:49:59;;;;;;;14.33;12.90;;;;;;;20.91;68.79;97927.69;8281237;28;20240;-72
2022/08/21 02:54:02;;;;;;;14.53;13.03;;;;;;;20.91;68.69;97926.84;8281650;28;20247;-72
2022/08/21 02:58:06;;;;;;;15.40;13.70;;;;;;;20.85;69.19;97934.31;8287206;28;20234;-72
2022/08/21 03:02:10;;;;;;;14.63;13.20;;;;;;;20.88;68.74;97934.03;8287253;28;20235;-72
2022/08/21 03:06:15;;;;;;;14.50;13.10;;;;;;;20.89;69.09;97926.97;8287167;28;20549;-72
2022/08/21 03:10:18;;;;;;;15.27;13.70;;;;;;;20.85;69.18;97930.84;8286925;28;20245;-72
2022/08/21 03:14:21;;;;;;;15.93;14.10;;;;;;;20.88;69.11;97939.28;8286863;28;20425;-72
2022/08/21 03:18:25;;;;;;;14.83;13.23;;;;;;;20.96;68.83;97936.00;8286830;28;20238;-72
2022/08/21 03:22:28;;;;;;;15.93;14.33;;;;;;;20.89;69.07;97934.88;8286596;28;20241;-72
2022/08/21 03:26:32;;;;;;;17.17;15.37;;;;;;;20.84;69.70;97930.00;8286053;28;20349;-72
2022/08/21 03:30:36;;;;;;;17.53;15.10;;;;;;;20.85;69.67;97938.75;8286368;28;20425;-72
2022/08/21 03:34:40;;;;;;;26.27;15.53;;;;;;;20.87;69.66;97939.44;8286484;28;20547;-72
2022/08/21 03:38:43;;;;;;;13.30;11.90;;;;;;;20.82;69.15;97941.63;8286151;28;20263;-72
2022/08/21 03:42:47;;;;;;;12.57;11.37;;;;;;;20.81;69.29;97940.81;8285943;28;20248;-72
2022/08/21 03:46:49;;;;;;;26.30;10.43;;;;;;;20.81;69.28;97939.94;8285626;28;20430;-72
2022/08/21 03:50:54;;;;;;;9.30;8.50;;;;;;;20.79;68.87;97941.88;8285669;28;20428;-72
2022/08/21 03:54:57;;;;;;;9.03;8.13;;;;;;;20.78;67.96;97937.59;8285647;28;20229;-72
2022/08/21 03:58:59;;;;;;;12.77;9.20;;;;;;;20.67;68.56;97933.25;8285345;28;20240;-72
2022/08/21 04:03:02;;;;;;;16.70;10.00;;;;;;;20.64;68.48;97937.00;8285232;28;20555;-72
2022/08/21 04:07:06;;;;;;;10.07;9.07;;;;;;;20.70;68.83;97933.84;8284444;28;20487;-71
2022/08/21 04:11:10;;;;;;;17.57;9.47;;;;;;;20.59;69.02;97940.97;8285303;28;20409;-72
2022/08/21 04:15:12;;;;;;;9.50;8.70;;;;;;;20.56;68.69;97942.06;8285180;28;20240;-72
2022/08/21 04:19:15;;;;;;;10.87;9.20;;;;;;;20.54;69.28;97946.59;8284783;28;20410;-72
2022/08/21 04:23:20;;;;;;;10.30;9.40;;;;;;;20.63;69.33;97956.38;8284704;28;20234;-72
2022/08/21 04:27:26;;;;;;;13.03;10.10;;;;;;;20.58;69.61;97960.31;8283794;28;20551;-72
2022/08/21 04:31:29;;;;;;;10.50;9.47;;;;;;;20.71;68.56;97960.97;8283563;28;20243;-72
2022/08/21 04:35:32;;;;;;;12.00;9.60;;;;;;;20.65;68.95;97970.22;8284568;28;20236;-73
2022/08/21 04:39:36;;;;;;;10.73;9.73;;;;;;;20.61;69.22;97975.91;8284097;28;20241;-73
2022/08/21 04:43:40;;;;;;;7.90;7.20;;;;;;;20.62;68.83;97975.78;8284177;28;20237;-72
2022/08/21 04:47:43;;;;;;;9.63;8.50;;;;;;;20.57;68.98;97979.72;8283702;28;20558;-73
2022/08/21 04:51:54;;;;;;;11.43;8.60;;;;;;;20.59;69.13;97977.78;8283337;28;20400;-73
2022/08/21 04:56:02;;;;;;;9.13;7.93;;;;;;;20.66;69.13;97982.44;8283553;28;20234;-73
2022/08/21 05:00:06;;;;;;;9.90;7.60;;;;;;;20.65;68.89;97986.00;8283270;28;20253;-73
2022/08/21 05:04:18;;;;;;;10.47;7.47;;;;;;;20.61;68.56;97992.50;8283510;28;20240;-72
2022/08/21 05:08:23;;;;;;;8.30;7.50;;;;;;;20.60;68.74;97997.88;8283272;28;20301;-73
2022/08/21 05:12:27;;;;;;;10.57;7.27;;;;;;;20.55;68.92;97994.81;8282688;28;20239;-72
2022/08/21 05:16:30;;;;;;;8.27;7.33;;;;;;;20.59;68.20;97999.66;8283046;28;20233;-73
2022/08/21 05:20:39;;;;;;;10.27;6.67;;;;;;;20.54;68.58;97999.22;8281960;28;20251;-72
2022/08/21 05:24:43;;;;;;;11.83;6.87;;;;;;;20.62;67.62;97995.97;8282613;28;20252;-72
2022/08/21 05:28:47;;;;;;;8.50;6.37;;;;;;;20.58;67.23;97995.38;8282583;28;20241;-73
2022/08/21 05:32:51;;;;;;;7.43;6.73;;;;;;;20.57;67.56;97998.13;8282218;28;20252;-71
2022/08/21 05:36:53;;;;;;;7.23;6.57;;;;;;;20.58;67.54;98000.66;8281755;28;20247;-71
2022/08/21 05:40:56;;;;;;;16.30;7.67;;;;;;;20.55;67.01;98002.69;8282250;28;20241;-72
2022/08/21 05:45:00;;;;;;;6.90;6.30;;;;;;;20.69;67.19;97997.97;8282206;28;20236;-71
2022/08/21 05:49:03;;;;;;;25.13;7.00;;;;;;;20.60;66.87;98003.16;8282176;28;20259;-72
2022/08/21 05:53:06;;;;;;;6.77;6.20;;;;;;;20.66;67.36;98002.66;8281937;28;20246;-72
2022/08/21 05:57:10;;;;;;;7.13;6.50;;;;;;;20.72;67.41;98004.75;8281904;28;20274;-72
2022/08/21 06:01:14;;;;;;;14.00;6.30;;;;;;;20.66;67.08;98010.53;8281709;28;20401;-72
2022/08/21 06:05:17;;;;;;;6.50;6.00;;;;;;;20.79;66.70;98012.94;8281964;28;20290;-71
2022/08/21 06:09:39;;;;;;;6.83;6.30;;;;;;;20.81;67.38;98011.00;8281710;28;20247;-73
2022/08/21 06:13:42;;;;;;;7.07;6.37;;;;;;;20.80;66.67;98018.09;8281499;28;20237;-73
2022/08/21 06:17:46;;;;;;;7.23;6.63;;;;;;;20.82;67.31;98013.50;8281417;28;20431;-73
2022/08/21 06:21:49;;;;;;;8.50;7.70;;;;;;;20.92;66.73;98021.44;8281167;28;20259;-72
2022/08/21 06:25:51;;;;;;;8.53;7.20;;;;;;;20.89;67.42;98019.94;8281340;28;20241;-73
2022/08/21 06:29:58;;;;;;;9.97;7.57;;;;;;;20.86;67.64;98019.34;8283231;28;20536;-72
2022/08/21 06:34:02;;;;;;;7.80;7.10;;;;;;;20.95;67.77;98023.84;8287887;28;20235;-73
2022/08/21 06:38:05;;;;;;;7.30;6.67;;;;;;;20.98;67.29;98028.00;8287811;28;20244;-72
2022/08/21 06:42:14;;;;;;;7.73;7.03;;;;;;;20.85;67.32;98034.31;8287822;28;20241;-72
2022/08/21 06:46:17;;;;;;;8.40;7.30;;;;;;;20.87;67.77;98027.13;8287616;28;20236;-72
2022/08/21 06:50:21;;;;;;;10.20;8.10;;;;;;;20.97;67.81;98029.78;8287404;28;20248;-72
2022/08/21 06:54:23;;;;;;;8.73;7.93;;;;;;;21.04;67.37;98030.94;8287402;28;20240;-73
2022/08/21 06:58:26;;;;;;;7.97;7.17;;;;;;;20.97;67.54;98036.88;8287301;28;20248;-72
2022/08/21 07:02:29;;;;;;;10.27;8.87;;;;;;;20.96;67.44;98037.81;8286861;28;20417;-72
2022/08/21 07:06:33;;;;;;;8.77;7.83;;;;;;;21.02;67.76;98035.50;8286990;28;20229;-72
2022/08/21 07:10:36;;;;;;;8.53;7.73;;;;;;;20.93;67.42;98038.09;8286795;28;20331;-72
2022/08/21 07:14:39;;;;;;;8.63;7.83;;;;;;;20.95;67.76;98036.16;8286752;28;20233;-73
2022/08/21 07:18:42;;;;;;;9.10;8.20;;;;;;;21.06;67.17;98038.72;8286696;28;20237;-72
2022/08/21 07:22:46;;;;;;;9.50;8.40;;;;;;;20.98;67.45;98036.75;8286569;28;20242;-73
2022/08/21 07:26:49;;;;;;;9.33;8.53;;;;;;;21.02;67.49;98037.31;8285700;28;20420;-72
2022/08/21 07:30:53;;;;;;;9.27;8.37;;;;;;;21.05;67.33;98039.66;8286413;28;20241;-72
2022/08/21 07:34:55;;;;;;;10.40;9.33;;;;;;;20.98;67.66;98039.38;8286151;28;20268;-72
2022/08/21 07:39:00;;;;;;;10.40;9.40;;;;;;;21.09;67.72;98043.69;8286003;28;20539;-72
2022/08/21 07:43:03;;;;;;;11.07;9.97;;;;;;;21.24;67.14;98039.72;8284729;28;20237;-72
2022/08/21 07:47:05;;;;;;;12.87;10.43;;;;;;;21.33;67.34;98034.66;8285801;28;20233;-72
2022/08/21 07:51:11;;;;;;;15.23;13.53;;;;;;;21.41;66.82;98026.91;8285825;28;20240;-72
2022/08/21 07:55:19;;;;;;;15.87;13.77;;;;;;;21.41;67.17;98032.16;8285730;28;20240;-72
2022/08/21 07:59:22;;;;;;;13.97;12.57;;;;;;;21.52;66.42;98031.25;8285407;28;20225;-72
2022/08/21 08:03:25;;;;;;;13.80;12.50;;;;;;;21.57;66.49;98029.03;8285114;28;20241;-72
2022/08/21 08:07:30;;;;;;;13.80;12.27;;;;;;;21.60;66.07;98034.03;8285273;28;20336;-73
2022/08/21 08:11:36;;;;;;;15.23;12.60;;;;;;;21.65;66.68;98024.75;8285120;28;20237;-73
2022/08/21 08:15:39;;;;;;;16.13;13.30;;;;;;;21.54;65.56;98026.69;8284907;28;20233;-73
2022/08/21 08:19:44;;;;;;;15.23;13.63;;;;;;;21.58;65.64;98034.16;8284904;28;20316;-73
2022/08/21 08:23:47;;;;;;;15.33;12.63;;;;;;;21.75;65.44;98016.03;8284233;28;20241;-73
2022/08/21 08:27:51;;;;;;;14.67;13.13;;;;;;;21.77;65.68;98022.81;8284602;28;20447;-72
2022/08/21 08:31:54;;;;;;;14.53;13.03;;;;;;;21.84;65.60;98018.69;8284495;28;20245;-72
2022/08/21 08:35:57;;;;;;;14.93;13.43;;;;;;;21.95;65.39;98009.81;8284438;28;20236;-73
2022/08/21 08:40:05;;;;;;;14.00;12.60;;;;;;;22.01;64.92;98013.69;8284402;28;20241;-74
2022/08/21 08:44:10;;;;;;;13.77;12.37;;;;;;;22.22;63.99;98014.38;8284140;28;20237;-71
2022/08/21 08:48:15;;;;;;;13.53;12.23;;;;;;;22.41;63.32;98015.34;8283899;28;20245;-71
2022/08/21 08:52:21;;;;;;;11.77;10.67;;;;;;;22.47;63.15;98013.97;8283907;28;20539;-72
2022/08/21 08:56:29;;;;;;;11.97;10.87;;;;;;;23.20;61.48;98014.97;8283857;28;20234;-72
2022/08/21 09:00:34;;;;;;;10.30;9.40;;;;;;;23.42;60.71;98013.75;8283657;28;20418;-71
2022/08/21 09:04:37;;;;;;;10.93;9.87;;;;;;;23.83;59.71;98009.88;8283581;28;20430;-72
2022/08/21 09:08:49;;;;;;;10.63;9.60;;;;;;;23.62;59.04;98010.97;8283509;28;20236;-72
2022/08/21 09:12:57;;;;;;;10.53;9.43;;;;;;;23.46;59.50;98006.34;8283087;28;20250;-72
2022/08/21 09:17:07;;;;;;;9.30;8.50;;;;;;;23.52;58.72;98012.84;8282870;28;20246;-72
2022/08/21 09:21:17;;;;;;;10.00;8.87;;;;;;;23.51;58.89;98009.34;8282894;28;20417;-72
2022/08/21 09:25:23;;;;;;;8.70;7.90;;;;;;;23.59;59.40;98004.19;8282694;28;20249;-72
2022/08/21 09:29:29;;;;;;;9.83;8.83;;;;;;;23.54;59.16;98000.31;8282723;28;20237;-72
2022/08/21 09:33:34;;;;;;;9.20;8.27;;;;;;;23.63;59.06;98002.06;8282375;28;20231;-72
2022/08/21 09:37:48;;;;;;;8.80;8.10;;;;;;;23.74;58.21;97998.34;8282388;28;20410;-72
2022/08/21 09:41:57;;;;;;;9.60;8.07;;;;;;;24.13;57.25;97992.78;8281964;28;20236;-72
2022/08/21 09:46:07;;;;;;;9.00;8.10;;;;;;;23.95;57.92;97993.66;8282548;28;20235;-71
2022/08/21 09:50:16;;;;;;;8.90;8.00;;;;;;;25.21;56.26;97997.72;8281893;28;20229;-73
2022/08/21 09:54:22;;;;;;;9.97;9.07;;;;;;;25.80;54.39;97989.78;8282745;28;20401;-73
2022/08/21 09:58:32;;;;;;;9.83;7.33;;;;;;;26.75;51.66;97976.00;8282393;28;20299;-72
2022/08/21 10:02:36;;;;;;;8.50;7.80;;;;;;;27.22;49.90;97983.13;8282098;28;20240;-73
2022/08/21 10:06:40;;;;;;;8.37;7.57;;;;;;;27.49;48.36;97982.69;8281514;28;20422;-72
2022/08/21 10:10:43;;;;;;;7.30;6.60;;;;;;;27.93;47.98;97978.59;8282253;28;20233;-72
2022/08/21 10:14:51;;;;;;;7.63;6.93;;;;;;;27.77;46.85;97979.50;8281941;28;20248;-72
2022/08/21 10:19:03;;;;;;;7.50;6.80;;;;;;;28.22;48.03;97977.03;8281479;28;20237;-73
2022/08/21 10:23:22;;;;;;;7.57;6.90;;;;;;;28.65;45.76;97974.63;8281800;28;20236;-73
2022/08/21 10:27:32;;;;;;;7.97;6.70;;;;;;;28.98;45.74;97968.94;8281484;28;20251;-73
2022/08/21 10:31:42;;;;;;;9.03;8.23;;;;;;;27.65;46.60;97981.75;8281964;28;20260;-73
2022/08/21 10:35:51;;;;;;;10.63;8.40;;;;;;;27.63;46.68;97974.94;8281729;28;20244;-73
2022/08/21 10:40:08;;;;;;;7.77;6.87;;;;;;;28.62;45.90;97970.50;8281222;28;20237;-72
2022/08/21 10:44:21;;;;;;;9.17;8.33;;;;;;;27.90;45.66;97973.63;8281675;28;20243;-74
2022/08/21 10:48:29;;;;;;;9.93;6.37;;;;;;;28.73;44.90;97957.72;8281664;28;20234;-73
2022/08/21 10:52:52;;;;;;;9.10;8.20;;;;;;;27.21;46.60;97970.84;8281419;28;20237;-73
2022/08/21 10:57:01;;;;;;;7.93;7.13;;;;;;;28.55;44.72;97958.91;8281000;28;20229;-73
2022/08/21 11:01:11;;;;;;;6.20;5.60;;;;;;;29.18;42.82;97961.19;8281191;28;20248;-72
2022/08/21 11:05:17;;;;;;;9.27;6.10;;;;;;;28.38;43.13;97950.22;8280949;28;20243;-73
2022/08/21 11:09:22;;;;;;;6.10;5.50;;;;;;;29.09;42.89;97951.59;8281060;28;20236;-74
2022/08/21 11:13:31;;;;;;;5.87;5.30;;;;;;;29.55;42.73;97951.31;8281219;28;20312;-73
2022/08/21 11:17:37;;;;;;;7.40;4.13;;;;;;;29.80;40.75;97952.66;8285123;28;20242;-74
2022/08/21 11:21:44;;;;;;;5.47;3.87;;;;;;;30.21;38.60;97943.13;8286788;28;20237;-73
2022/08/21 11:25:51;;;;;;;15.93;7.20;;;;;;;30.03;37.72;97948.94;8286049;28;20244;-72
2022/08/21 11:29:57;;;;;;;6.20;4.10;;;;;;;30.27;38.37;97949.53;8286337;28;20361;-72
2022/08/21 11:34:08;;;;;;;4.43;4.03;;;;;;;30.39;39.68;97940.81;8286307;28;20240;-73
2022/08/21 11:38:27;;;;;;;5.57;5.07;;;;;;;30.08;39.39;97935.00;8286340;28;20236;-73
2022/08/21 11:42:37;;;;;;;8.63;4.80;;;;;;;28.58;40.90;97931.09;8286152;28;20246;-73
2022/08/21 11:46:48;;;;;;;5.37;4.87;;;;;;;27.86;42.48;97925.22;8286255;28;20231;-73
2022/08/21 11:50:51;;;;;;;5.50;5.00;;;;;;;28.52;39.74;97923.81;8285664;28;20253;-73
2022/08/21 11:54:59;;;;;;;4.00;3.40;;;;;;;29.39;39.71;97923.06;8285666;28;20238;-72
2022/08/21 11:59:06;;;;;;;4.70;3.40;;;;;;;30.06;38.28;97916.50;8285245;28;20306;-73
2022/08/21 12:03:12;;;;;;;4.30;4.00;;;;;;;29.21;39.86;97915.50;8285511;28;20265;-73
2022/08/21 12:07:18;;;;;;;5.30;4.10;;;;;;;28.53;38.91;97902.31;8285278;28;20245;-73
2022/08/21 12:11:26;;;;;;;5.63;4.20;;;;;;;28.79;38.88;97906.38;8285315;28;20277;-73
2022/08/21 12:15:32;;;;;;;3.43;3.13;;;;;;;29.84;38.28;97904.25;8285324;28;20305;-73
2022/08/21 12:19:37;;;;;;;4.07;3.20;;;;;;;29.51;37.76;97907.38;8285027;28;20234;-73
2022/08/21 12:23:47;;;;;;;4.47;3.30;;;;;;;28.50;37.54;97904.50;8284979;28;20235;-73
2022/08/21 12:27:53;;;;;;;3.53;3.23;;;;;;;27.88;40.03;97901.94;8283663;28;20233;-73
2022/08/21 12:32:01;;;;;;;4.17;2.87;;;;;;;28.85;36.99;97897.63;8284633;28;20229;-74
2022/08/21 12:36:12;;;;;;;3.63;3.30;;;;;;;29.44;35.48;97891.31;8284309;28;20248;-73
2022/08/21 12:40:21;;;;;;;3.27;2.97;;;;;;;30.12;35.29;97888.22;8284210;28;20624;-73
2022/08/21 12:44:29;;;;;;;3.53;3.00;;;;;;;30.38;35.65;97895.59;8284101;28;20239;-73
2022/08/21 12:48:35;;;;;;;5.10;3.57;;;;;;;30.19;33.10;97905.91;8284093;28;20241;-74
2022/08/21 12:52:50;;;;;;;4.70;2.90;;;;;;;30.62;34.05;97893.50;8283570;28;20246;-73
2022/08/21 12:57:01;;;;;;;4.73;2.90;;;;;;;29.98;35.10;97882.78;8283282;28;20270;-73
2022/08/21 13:01:06;;;;;;;3.10;2.60;;;;;;;30.55;33.44;97883.56;8283646;28;20248;-73
2022/08/21 13:05:13;;;;;;;4.73;3.00;;;;;;;30.55;33.72;97880.06;8283569;28;20232;-73
2022/08/21 13:09:20;;;;;;;3.23;2.93;;;;;;;30.88;34.10;97882.91;8283262;28;20246;-73
2022/08/21 13:13:26;;;;;;;9.10;2.90;;;;;;;30.90;34.49;97874.69;8283431;28;20240;-73
2022/08/21 13:17:32;;;;;;;3.30;3.00;;;;;;;30.82;34.12;97873.00;8283136;28;20245;-73
2022/08/21 13:21:40;;;;;;;3.43;3.13;;;;;;;30.14;32.73;97865.66;8282891;28;20232;-73
2022/08/21 13:25:44;;;;;;;4.87;2.77;;;;;;;30.15;33.86;97863.78;8282615;28;20241;-73
2022/08/21 13:29:48;;;;;;;3.50;3.00;;;;;;;30.54;33.46;97868.56;8282834;28;20420;-73
2022/08/21 13:33:56;;;;;;;3.07;2.80;;;;;;;30.71;33.43;97861.06;8282636;28;20542;-73
2022/08/21 13:38:00;;;;;;;3.53;3.00;;;;;;;31.03;34.19;97849.84;8282146;28;20243;-73
2022/08/21 13:42:06;;;;;;;4.00;2.60;;;;;;;31.21;33.14;97852.78;8281680;28;20245;-73
2022/08/21 13:46:11;;;;;;;3.40;2.67;;;;;;;30.62;33.39;97858.75;8282263;28;20250;-73
2022/08/21 13:50:16;;;;;;;2.70;2.50;;;;;;;30.58;32.05;97858.31;8281789;28;20235;-73
2022/08/21 13:54:24;;;;;;;2.80;2.60;;;;;;;29.46;34.94;97854.63;8282054;28;20237;-73
2022/08/21 13:58:42;;;;;;;2.60;2.40;;;;;;;29.04;35.71;97849.03;8281877;28;20309;-73
2022/08/21 14:02:47;;;;;;;2.70;2.50;;;;;;;28.48;35.94;97851.41;8281795;28;20245;-73
2022/08/21 14:06:51;;;;;;;3.30;2.70;;;;;;;28.19;36.78;97854.91;8281327;28;20519;-73
2022/08/21 14:10:54;;;;;;;3.30;3.00;;;;;;;28.01;37.24;97857.94;8281730;28;20235;-73
2022/08/21 14:15:04;;;;;;;3.33;3.03;;;;;;;28.41;36.93;97854.00;8281706;28;20546;-73
2022/08/21 14:19:11;;;;;;;3.63;2.43;;;;;;;28.07;34.93;97844.72;8281535;28;20244;-73
2022/08/21 14:23:24;;;;;;;3.30;2.70;;;;;;;28.59;33.87;97844.81;8281305;28;20240;-73
2022/08/21 14:27:30;;;;;;;3.03;2.70;;;;;;;28.90;35.10;97841.94;8281286;28;20243;-73
2022/08/21 14:31:34;;;;;;;3.80;2.43;;;;;;;29.10;33.96;97841.31;8281444;28;20246;-73
2022/08/21 14:35:43;;;;;;;4.87;2.60;;;;;;;29.24;34.00;97843.13;8281283;28;20247;-73
2022/08/21 14:39:46;;;;;;;3.40;3.00;;;;;;;29.21;34.29;97830.19;8281054;28;20244;-73
2022/08/21 14:43:49;;;;;;;2.73;2.53;;;;;;;29.29;32.43;97821.22;8280796;28;20396;-73
2022/08/21 14:48:12;;;;;;;3.67;2.73;;;;;;;29.33;32.54;97819.81;8281110;28;20255;-73
2022/08/21 14:52:14;;;;;;;3.57;2.60;;;;;;;29.22;31.22;97813.16;8284614;28;20235;-73
2022/08/21 14:56:18;;;;;;;2.77;2.30;;;;;;;29.43;31.43;97815.81;8287311;28;20349;-73
2022/08/21 15:00:22;;;;;;;3.03;2.63;;;;;;;29.31;31.18;97803.19;8287118;28;20263;-73
2022/08/21 15:04:30;;;;;;;3.60;2.30;;;;;;;29.38;31.93;97802.22;8286976;28;20239;-73
2022/08/21 15:08:33;;;;;;;2.50;2.30;;;;;;;29.40;31.68;97802.03;8286869;28;20233;-74
2022/08/21 15:12:37;;;;;;;3.20;2.43;;;;;;;29.19;30.63;97795.69;8286895;28;20234;-74
2022/08/21 15:16:39;;;;;;;2.30;2.10;;;;;;;29.38;32.52;97790.75;8286687;28;20239;-74
2022/08/21 15:20:44;;;;;;;3.53;2.50;;;;;;;29.31;32.44;97797.84;8286496;28;20243;-74
2022/08/21 15:24:47;;;;;;;2.77;2.20;;;;;;;29.22;31.28;97789.16;8285911;28;20253;-73
2022/08/21 15:28:49;;;;;;;4.30;2.33;;;;;;;29.16;31.66;97789.91;8286008;28;20231;-73
2022/08/21 15:32:53;;;;;;;2.67;2.30;;;;;;;29.05;32.27;97778.72;8286261;28;20241;-73
2022/08/21 15:36:58;;;;;;;2.37;2.10;;;;;;;28.97;30.83;97780.69;8286153;28;20234;-73
2022/08/21 15:41:03;;;;;;;4.07;2.07;;;;;;;28.98;31.23;97766.34;8285738;28;20243;-73
2022/08/21 15:45:07;;;;;;;3.50;2.33;;;;;;;28.76;32.48;97776.16;8285830;28;20243;-73
2022/08/21 15:49:10;;;;;;;4.20;2.10;;;;;;;28.69;31.25;97770.75;8285658;28;20237;-73
2022/08/21 15:53:14;;;;;;;2.63;2.20;;;;;;;28.68;30.86;97768.31;8285293;28;20346;-73
2022/08/21 15:57:19;;;;;;;2.63;2.20;;;;;;;28.45;30.97;97761.25;8285457;28;20240;-73
2022/08/21 16:01:22;;;;;;;2.77;2.47;;;;;;;28.47;30.82;97756.56;8284954;28;20241;-73
2022/08/21 16:05:25;;;;;;;2.60;2.40;;;;;;;28.44;31.13;97757.75;8284541;28;20246;-73
2022/08/21 16:09:29;;;;;;;3.23;2.47;;;;;;;28.20;30.46;97753.56;8284775;28;20304;-73
2022/08/21 16:13:37;;;;;;;2.43;2.23;;;;;;;28.15;31.17;97744.50;8284895;28;20430;-73
2022/08/21 16:17:43;;;;;;;4.93;2.30;;;;;;;27.97;32.38;97750.19;8284910;28;20240;-73
2022/08/21 16:21:46;;;;;;;2.70;2.17;;;;;;;27.79;31.35;97746.03;8284600;28;20242;-73
2022/08/21 16:25:50;;;;;;;2.60;2.20;;;;;;;27.59;31.89;97736.94;8283386;28;20266;-72
2022/08/21 16:29:54;;;;;;;4.80;2.17;;;;;;;27.57;32.34;97745.09;8284246;28;20237;-73
2022/08/21 16:33:57;;;;;;;2.83;2.30;;;;;;;27.54;31.91;97736.66;8284071;28;20240;-73
2022/08/21 16:38:01;;;;;;;4.00;2.53;;;;;;;27.43;32.03;97744.06;8283964;28;20232;-78
2022/08/21 16:42:06;;;;;;;8.70;2.10;;;;;;;27.41;31.79;97734.63;8283877;28;20530;-77
2022/08/21 16:46:11;;;;;;;2.20;1.93;;;;;;;27.33;31.29;97730.19;8284035;28;20528;-76
2022/08/21 16:50:16;;;;;;;2.37;2.17;;;;;;;27.10;30.46;97731.03;8283740;28;20240;-77
2022/08/21 16:54:19;;;;;;;3.10;2.20;;;;;;;26.92;30.53;97731.34;8285746;28;20242;-77
2022/08/21 16:58:26;;;;;;;2.87;2.10;;;;;;;26.79;30.91;97728.47;8283476;28;20244;-76
2022/08/21 17:02:32;;;;;;;3.10;2.10;;;;;;;26.80;31.77;97723.97;8283517;28;20540;-79
2022/08/21 17:06:35;;;;;;;2.27;1.93;;;;;;;26.71;32.28;97725.84;8283455;28;20243;-76
2022/08/21 17:10:38;;;;;;;3.20;2.40;;;;;;;26.56;32.71;97738.19;8283257;28;20238;-74
2022/08/21 17:14:42;;;;;;;2.73;2.33;;;;;;;26.46;32.90;97730.44;8283018;28;20547;-76
2022/08/21 17:18:46;;;;;;;2.60;2.10;;;;;;;26.42;33.34;97740.59;8283187;28;20236;-79
2022/08/21 17:22:53;;;;;;;9.03;2.23;;;;;;;26.48;34.48;97739.06;8282716;28;20233;-76
2022/08/21 17:26:58;;;;;;;7.97;2.57;;;;;;;26.46;35.97;97739.22;8282096;28;20249;-76
2022/08/21 17:31:02;;;;;;;6.07;2.47;;;;;;;26.44;36.66;97738.59;8282867;28;20233;-75
2022/08/21 17:35:12;;;;;;;6.40;3.10;;;;;;;26.38;37.92;97733.97;8282653;28;20236;-74
2022/08/21 17:39:15;;;;;;;10.87;3.00;;;;;;;26.30;37.79;97737.50;8282277;28;20293;-74
2022/08/21 17:43:28;;;;;;;5.07;2.63;;;;;;;26.20;37.45;97742.19;8281989;28;20337;-74
2022/08/21 17:47:33;;;;;;;5.90;2.73;;;;;;;26.11;37.64;97741.41;8282150;28;20563;-74
2022/08/21 17:51:36;;;;;;;8.40;2.97;;;;;;;25.99;37.82;97737.47;8282197;28;20243;-73
2022/08/21 17:55:40;;;;;;;4.20;2.80;;;;;;;25.90;40.71;97744.59;8281885;28;20239;-76
2022/08/21 17:59:43;;;;;;;5.27;2.70;;;;;;;25.83;40.08;97738.31;8281954;28;20238;-75
2022/08/21 18:03:48;;;;;;;4.00;2.57;;;;;;;25.74;41.31;97736.66;8281753;28;20239;-71
2022/08/21 18:07:51;;;;;;;3.00;2.60;;;;;;;25.67;41.85;97741.03;8281100;28;20267;-73
2022/08/21 18:11:54;;;;;;;3.83;2.50;;;;;;;25.63;44.89;97745.84;8281401;28;20241;-74
2022/08/21 18:15:58;;;;;;;4.33;2.73;;;;;;;25.58;43.95;97742.03;8281447;28;20234;-73
2022/08/21 18:20:06;;;;;;;5.60;3.37;;;;;;;25.45;45.32;97743.38;8280929;28;20321;-73
2022/08/21 18:24:09;;;;;;;4.73;3.00;;;;;;;25.37;44.88;97751.34;8281154;28;20229;-74
2022/08/21 18:28:13;;;;;;;4.87;3.30;;;;;;;25.28;45.77;97747.84;8286655;28;20241;-74
2022/08/21 18:32:16;;;;;;;10.87;3.40;;;;;;;25.28;45.03;97754.97;8288003;28;20434;-74
2022/08/21 18:36:35;;;;;;;4.20;3.03;;;;;;;25.17;46.18;97761.44;8287744;28;20321;-74
2022/08/21 18:40:40;;;;;;;6.20;3.00;;;;;;;25.11;45.57;97767.38;8286425;28;20256;-78
2022/08/21 18:44:45;;;;;;;6.03;2.93;;;;;;;25.12;45.88;97766.38;8287372;28;20240;-74
2022/08/21 18:48:50;;;;;;;5.00;3.17;;;;;;;24.95;45.57;97768.19;8286927;28;20255;-74
2022/08/21 18:52:55;;;;;;;5.30;3.40;;;;;;;24.96;45.65;97769.88;8287466;28;20247;-74
2022/08/21 18:56:58;;;;;;;8.83;3.20;;;;;;;24.93;45.97;97776.28;8287380;28;20238;-75
2022/08/21 19:01:07;;;;;;;16.03;3.70;;;;;;;24.93;45.29;97767.53;8286784;28;20443;-74
2022/08/21 19:05:12;;;;;;;9.80;3.20;;;;;;;24.88;45.90;97770.66;8286841;28;20239;-74
2022/08/21 19:09:16;;;;;;;10.13;3.57;;;;;;;24.78;45.91;97770.81;8286827;28;20239;-74